XNO69E EGGD-LPFR
Flight info
| Callsign | XNO69E |
|---|---|
| Flight time | N/A |
| Altitude | 32000 |
| Route | EXMOR N92 DAWLY DCT BHD DCT SALCO DCT IBISU/N0453F350 DCT BALDA DCT ABUPI DCT ORVED DCT UPULO DCT ALAGU |
| Aircraft | A321/M-SDE1E2E3FGHIRWY/LB1 |
Departure
| Time | N/A |
|---|---|
| Airport | Bristol Airport (EGGD) |
Arrival
| Time | 2026-05-04 20:15 |
|---|---|
| Airport | Faro - Gago Coutinho International Airport (LPFR) |
| Time | Latitude | Longitude | Altitude | Speed | Heading |
|---|---|---|---|---|---|
| 2026-05-04 18:48 | 45.98031 | -5.05857 | 32012 ft | 421 kts | 193° |
| 2026-05-04 18:49 | 45.92370 | -5.07950 | 32009 ft | 420 kts | 193° |
| 2026-05-04 18:49 | 45.86694 | -5.10041 | 32012 ft | 420 kts | 193° |
| 2026-05-04 18:50 | 45.81067 | -5.12109 | 32023 ft | 420 kts | 194° |
| 2026-05-04 18:50 | 45.75398 | -5.14192 | 32010 ft | 421 kts | 194° |
| 2026-05-04 18:51 | 45.69710 | -5.16283 | 32003 ft | 422 kts | 194° |
| 2026-05-04 18:51 | 45.64022 | -5.18364 | 31989 ft | 422 kts | 194° |
| 2026-05-04 18:52 | 45.58319 | -5.20437 | 32009 ft | 423 kts | 194° |
| 2026-05-04 18:52 | 45.52618 | -5.22513 | 32014 ft | 423 kts | 194° |
| 2026-05-04 18:53 | 45.46907 | -5.24589 | 32010 ft | 423 kts | 194° |
| 2026-05-04 18:53 | 45.41206 | -5.26650 | 32000 ft | 423 kts | 194° |
| 2026-05-04 18:54 | 45.35499 | -5.28704 | 32010 ft | 423 kts | 194° |
| 2026-05-04 18:54 | 45.29792 | -5.30768 | 32018 ft | 423 kts | 194° |
| 2026-05-04 18:55 | 45.24085 | -5.32831 | 32024 ft | 425 kts | 194° |
| 2026-05-04 18:55 | 45.18297 | -5.34915 | 32285 ft | 432 kts | 194° |
| 2026-05-04 18:55 | 45.15377 | -5.35963 | 32515 ft | 434 kts | 194° |
| 2026-05-04 18:56 | 45.12449 | -5.37011 | 32797 ft | 434 kts | 194° |
| 2026-05-04 18:56 | 45.09557 | -5.38044 | 33093 ft | 434 kts | 194° |
| 2026-05-04 18:56 | 45.06627 | -5.39096 | 33307 ft | 435 kts | 194° |
| 2026-05-04 18:56 | 45.03685 | -5.40154 | 33548 ft | 436 kts | 195° |
| 2026-05-04 18:57 | 45.00744 | -5.41209 | 33822 ft | 436 kts | 194° |
| 2026-05-04 18:57 | 44.97804 | -5.42260 | 34075 ft | 436 kts | 194° |
| 2026-05-04 18:57 | 44.94860 | -5.43306 | 34302 ft | 436 kts | 194° |
| 2026-05-04 18:57 | 44.91917 | -5.44352 | 34505 ft | 436 kts | 194° |
| 2026-05-04 18:58 | 44.88971 | -5.45397 | 34709 ft | 437 kts | 195° |
| 2026-05-04 18:58 | 44.86024 | -5.46441 | 34899 ft | 437 kts | 195° |
| 2026-05-04 18:58 | 44.80107 | -5.48539 | 35018 ft | 439 kts | 195° |
| 2026-05-04 18:59 | 44.74169 | -5.50647 | 35003 ft | 438 kts | 195° |
| 2026-05-04 18:59 | 44.68291 | -5.52719 | 35018 ft | 438 kts | 195° |
| 2026-05-04 19:00 | 44.62376 | -5.54807 | 35017 ft | 438 kts | 196° |
| 2026-05-04 19:00 | 44.56726 | -5.57929 | 35021 ft | 437 kts | 204° |
| 2026-05-04 19:01 | 44.51160 | -5.61386 | 35026 ft | 437 kts | 204° |
| 2026-05-04 19:01 | 44.45581 | -5.64823 | 35022 ft | 438 kts | 204° |
| 2026-05-04 19:02 | 44.40002 | -5.68248 | 35027 ft | 438 kts | 204° |
| 2026-05-04 19:02 | 44.34423 | -5.71679 | 35038 ft | 438 kts | 204° |
| 2026-05-04 19:03 | 44.28838 | -5.75108 | 35031 ft | 439 kts | 204° |
| 2026-05-04 19:03 | 44.23270 | -5.78512 | 35031 ft | 440 kts | 205° |
| 2026-05-04 19:04 | 44.17660 | -5.81942 | 35039 ft | 440 kts | 205° |
| 2026-05-04 19:04 | 44.12043 | -5.85368 | 35046 ft | 440 kts | 205° |
| 2026-05-04 19:05 | 44.06424 | -5.88780 | 35044 ft | 440 kts | 205° |
| 2026-05-04 19:05 | 44.00810 | -5.92189 | 35045 ft | 440 kts | 205° |
| 2026-05-04 19:06 | 43.95198 | -5.95593 | 35052 ft | 440 kts | 205° |
| 2026-05-04 19:06 | 43.89584 | -5.98985 | 35058 ft | 440 kts | 205° |
| 2026-05-04 19:07 | 43.83968 | -6.02370 | 35047 ft | 440 kts | 205° |
| 2026-05-04 19:07 | 43.78354 | -6.05744 | 35059 ft | 440 kts | 205° |
| 2026-05-04 19:08 | 43.72735 | -6.09106 | 35068 ft | 439 kts | 205° |
| 2026-05-04 19:08 | 43.67126 | -6.12468 | 35060 ft | 440 kts | 205° |
| 2026-05-04 19:09 | 43.61510 | -6.15844 | 35061 ft | 440 kts | 205° |
| 2026-05-04 19:09 | 43.55893 | -6.19203 | 35062 ft | 440 kts | 205° |
| 2026-05-04 19:10 | 43.50268 | -6.22553 | 35067 ft | 440 kts | 205° |
| 2026-05-04 19:10 | 43.44640 | -6.25894 | 35058 ft | 440 kts | 206° |
| 2026-05-04 19:11 | 43.39015 | -6.29227 | 35079 ft | 440 kts | 206° |
| 2026-05-04 19:11 | 43.33429 | -6.32531 | 35085 ft | 439 kts | 206° |
| 2026-05-04 19:12 | 43.25014 | -6.37497 | 35075 ft | 439 kts | 206° |
| 2026-05-04 19:13 | 43.19407 | -6.40803 | 35082 ft | 438 kts | 206° |
| 2026-05-04 19:13 | 43.13803 | -6.44101 | 35081 ft | 438 kts | 206° |
| 2026-05-04 19:14 | 43.08207 | -6.47386 | 35088 ft | 437 kts | 206° |
| 2026-05-04 19:14 | 43.02601 | -6.50667 | 35062 ft | 438 kts | 206° |
| 2026-05-04 19:15 | 42.97026 | -6.53917 | 35072 ft | 439 kts | 206° |
| 2026-05-04 19:15 | 42.91402 | -6.57198 | 35079 ft | 439 kts | 206° |
| 2026-05-04 19:16 | 42.85781 | -6.60471 | 35087 ft | 439 kts | 206° |
| 2026-05-04 19:16 | 42.80155 | -6.63744 | 35070 ft | 440 kts | 206° |
| 2026-05-04 19:17 | 42.74534 | -6.67001 | 35083 ft | 439 kts | 206° |
| 2026-05-04 19:17 | 42.69826 | -6.69733 | 35091 ft | 439 kts | 206° |
| 2026-05-04 19:18 | 42.64218 | -6.72983 | 35093 ft | 438 kts | 206° |
| 2026-05-04 19:18 | 42.58605 | -6.76218 | 35092 ft | 438 kts | 206° |
| 2026-05-04 19:19 | 42.53027 | -6.79417 | 35088 ft | 438 kts | 206° |
| 2026-05-04 19:19 | 42.47415 | -6.82637 | 35090 ft | 438 kts | 206° |
| 2026-05-04 19:20 | 42.41803 | -6.85855 | 35093 ft | 438 kts | 206° |
| 2026-05-04 19:20 | 42.36167 | -6.89086 | 35071 ft | 439 kts | 207° |
| 2026-05-04 19:21 | 42.30533 | -6.92303 | 35072 ft | 439 kts | 206° |
| 2026-05-04 19:21 | 42.24938 | -6.95484 | 35079 ft | 439 kts | 206° |
| 2026-05-04 19:22 | 42.19298 | -6.98683 | 35072 ft | 440 kts | 206° |
| 2026-05-04 19:22 | 42.13660 | -7.01890 | 35091 ft | 439 kts | 207° |
| 2026-05-04 19:23 | 42.08026 | -7.05089 | 35095 ft | 439 kts | 207° |
| 2026-05-04 19:23 | 42.02400 | -7.08269 | 35090 ft | 438 kts | 207° |
| 2026-05-04 19:24 | 41.96775 | -7.11441 | 35063 ft | 438 kts | 207° |
| 2026-05-04 19:24 | 41.91161 | -7.14603 | 35102 ft | 437 kts | 207° |
| 2026-05-04 19:25 | 41.85566 | -7.17750 | 35092 ft | 436 kts | 207° |
| 2026-05-04 19:25 | 41.79966 | -7.20884 | 35092 ft | 435 kts | 207° |
| 2026-05-04 19:26 | 41.74257 | -7.23681 | 35055 ft | 441 kts | 198° |
| 2026-05-04 19:26 | 41.68132 | -7.24896 | 35059 ft | 446 kts | 193° |
| 2026-05-04 19:27 | 41.61988 | -7.26001 | 35066 ft | 446 kts | 193° |
| 2026-05-04 19:27 | 41.55871 | -7.27099 | 35073 ft | 446 kts | 193° |
| 2026-05-04 19:28 | 41.49720 | -7.28207 | 35050 ft | 446 kts | 194° |
| 2026-05-04 19:28 | 41.43579 | -7.29318 | 35062 ft | 445 kts | 194° |
| 2026-05-04 19:29 | 41.37445 | -7.30430 | 35074 ft | 445 kts | 194° |
| 2026-05-04 19:29 | 41.31306 | -7.31535 | 35055 ft | 444 kts | 194° |
| 2026-05-04 19:30 | 41.25180 | -7.32636 | 35074 ft | 444 kts | 194° |
| 2026-05-04 19:30 | 41.19064 | -7.33729 | 35087 ft | 443 kts | 194° |
| 2026-05-04 19:31 | 41.12992 | -7.34816 | 35089 ft | 443 kts | 194° |
| 2026-05-04 19:31 | 41.06894 | -7.35901 | 35067 ft | 442 kts | 195° |
| 2026-05-04 19:32 | 41.00802 | -7.36993 | 35091 ft | 441 kts | 195° |
| 2026-05-04 19:32 | 40.94719 | -7.38073 | 35093 ft | 441 kts | 195° |
| 2026-05-04 19:33 | 40.88637 | -7.39146 | 35060 ft | 441 kts | 195° |
| 2026-05-04 19:33 | 40.82566 | -7.40223 | 35084 ft | 440 kts | 195° |
| 2026-05-04 19:34 | 40.76494 | -7.41300 | 35094 ft | 439 kts | 195° |
| 2026-05-04 19:34 | 40.70435 | -7.42365 | 35099 ft | 440 kts | 195° |
| 2026-05-04 19:35 | 40.64372 | -7.43432 | 35070 ft | 439 kts | 196° |
| 2026-05-04 19:35 | 40.58325 | -7.44494 | 35101 ft | 438 kts | 196° |
| 2026-05-04 19:36 | 40.52274 | -7.45556 | 35108 ft | 438 kts | 196° |
| 2026-05-04 19:36 | 40.46262 | -7.46609 | 35103 ft | 437 kts | 196° |
| 2026-05-04 19:37 | 40.40234 | -7.47665 | 35099 ft | 437 kts | 196° |
| 2026-05-04 19:37 | 40.34205 | -7.48719 | 35097 ft | 436 kts | 196° |
| 2026-05-04 19:38 | 40.28185 | -7.49762 | 35094 ft | 436 kts | 196° |
| 2026-05-04 19:38 | 40.22175 | -7.50805 | 35055 ft | 436 kts | 196° |
| 2026-05-04 19:39 | 40.16165 | -7.51848 | 35072 ft | 436 kts | 197° |
| 2026-05-04 19:39 | 40.10154 | -7.52888 | 35083 ft | 436 kts | 197° |
| 2026-05-04 19:40 | 40.04138 | -7.53931 | 35082 ft | 436 kts | 197° |
| 2026-05-04 19:40 | 39.98124 | -7.54972 | 35051 ft | 436 kts | 197° |
| 2026-05-04 19:41 | 39.92109 | -7.56004 | 35078 ft | 436 kts | 197° |
| 2026-05-04 19:41 | 39.86096 | -7.57038 | 35084 ft | 435 kts | 197° |
| 2026-05-04 19:42 | 39.80089 | -7.58072 | 35087 ft | 435 kts | 197° |
| 2026-05-04 19:42 | 39.74087 | -7.59110 | 35058 ft | 435 kts | 197° |
| 2026-05-04 19:43 | 39.68093 | -7.60140 | 35084 ft | 435 kts | 197° |
| 2026-05-04 19:43 | 39.62095 | -7.61158 | 35089 ft | 435 kts | 197° |
| 2026-05-04 19:44 | 39.56100 | -7.62183 | 35090 ft | 435 kts | 197° |
| 2026-05-04 19:44 | 39.50095 | -7.63204 | 35055 ft | 435 kts | 197° |
| 2026-05-04 19:45 | 39.44098 | -7.64215 | 35071 ft | 435 kts | 197° |
| 2026-05-04 19:45 | 39.38072 | -7.65171 | 35080 ft | 440 kts | 192° |
| 2026-05-04 19:46 | 39.31933 | -7.65206 | 35050 ft | 445 kts | 189° |
| 2026-05-04 19:46 | 39.25741 | -7.65193 | 35071 ft | 445 kts | 189° |
| 2026-05-04 19:47 | 39.19547 | -7.65195 | 35085 ft | 445 kts | 189° |
| 2026-05-04 19:47 | 39.13346 | -7.65197 | 35092 ft | 445 kts | 189° |
| 2026-05-04 19:48 | 39.07162 | -7.65195 | 34911 ft | 442 kts | 189° |
| 2026-05-04 19:48 | 39.04110 | -7.65190 | 34669 ft | 436 kts | 189° |
| 2026-05-04 19:48 | 39.01082 | -7.65141 | 34433 ft | 435 kts | 188° |
| 2026-05-04 19:48 | 38.98060 | -7.65034 | 34197 ft | 434 kts | 188° |
| 2026-05-04 19:49 | 38.95048 | -7.64896 | 33944 ft | 433 kts | 188° |
| 2026-05-04 19:49 | 38.92082 | -7.64748 | 33675 ft | 431 kts | 188° |
| 2026-05-04 19:49 | 38.89052 | -7.64599 | 33391 ft | 429 kts | 188° |
| 2026-05-04 19:49 | 38.86072 | -7.64461 | 33090 ft | 427 kts | 188° |
| 2026-05-04 19:50 | 38.83153 | -7.64335 | 32853 ft | 425 kts | 188° |
| 2026-05-04 19:50 | 38.80162 | -7.64218 | 32578 ft | 423 kts | 188° |
| 2026-05-04 19:50 | 38.77271 | -7.64111 | 32323 ft | 421 kts | 188° |
| 2026-05-04 19:50 | 38.74346 | -7.64003 | 32065 ft | 419 kts | 188° |
| 2026-05-04 19:51 | 38.71438 | -7.63891 | 31810 ft | 418 kts | 188° |
| 2026-05-04 19:51 | 38.68532 | -7.63778 | 31558 ft | 416 kts | 188° |
| 2026-05-04 19:51 | 38.65646 | -7.63663 | 31309 ft | 414 kts | 188° |
| 2026-05-04 19:51 | 38.62770 | -7.63546 | 31017 ft | 412 kts | 188° |
| 2026-05-04 19:52 | 38.59909 | -7.63430 | 30774 ft | 411 kts | 188° |
| 2026-05-04 19:52 | 38.57057 | -7.63317 | 30515 ft | 407 kts | 188° |
| 2026-05-04 19:52 | 38.54233 | -7.63246 | 29940 ft | 405 kts | 189° |
| 2026-05-04 19:52 | 38.51431 | -7.63272 | 29485 ft | 400 kts | 191° |
| 2026-05-04 19:53 | 38.48668 | -7.63357 | 29041 ft | 395 kts | 191° |
| 2026-05-04 19:53 | 38.45937 | -7.63466 | 28628 ft | 391 kts | 191° |
| 2026-05-04 19:53 | 38.43230 | -7.63577 | 28214 ft | 388 kts | 191° |
| 2026-05-04 19:53 | 38.40542 | -7.63679 | 27795 ft | 385 kts | 191° |
| 2026-05-04 19:54 | 38.37879 | -7.63764 | 27414 ft | 382 kts | 191° |
| 2026-05-04 19:54 | 38.35224 | -7.63838 | 27012 ft | 379 kts | 190° |
| 2026-05-04 19:54 | 38.32590 | -7.63907 | 26636 ft | 376 kts | 190° |
| 2026-05-04 19:54 | 38.29981 | -7.63975 | 26261 ft | 373 kts | 190° |
| 2026-05-04 19:55 | 38.27396 | -7.64042 | 25872 ft | 371 kts | 190° |
| 2026-05-04 19:55 | 38.24826 | -7.64112 | 25479 ft | 368 kts | 190° |
| 2026-05-04 19:55 | 38.22274 | -7.64182 | 25090 ft | 366 kts | 190° |
| 2026-05-04 19:55 | 38.19737 | -7.64253 | 24687 ft | 364 kts | 190° |
| 2026-05-04 19:56 | 38.17211 | -7.64325 | 24291 ft | 362 kts | 190° |
| 2026-05-04 19:56 | 38.14697 | -7.64396 | 23901 ft | 361 kts | 190° |
| 2026-05-04 19:56 | 38.12194 | -7.64466 | 23446 ft | 359 kts | 189° |
| 2026-05-04 19:56 | 38.09705 | -7.64530 | 23022 ft | 356 kts | 189° |
| 2026-05-04 19:57 | 38.07236 | -7.64592 | 22598 ft | 353 kts | 189° |
| 2026-05-04 19:57 | 38.04789 | -7.64656 | 22194 ft | 350 kts | 189° |
| 2026-05-04 19:57 | 38.02361 | -7.64720 | 21783 ft | 347 kts | 189° |
| 2026-05-04 19:57 | 37.99990 | -7.64786 | 21383 ft | 343 kts | 189° |
| 2026-05-04 19:58 | 37.97580 | -7.64855 | 20975 ft | 340 kts | 189° |
| 2026-05-04 19:58 | 37.95223 | -7.64923 | 20575 ft | 338 kts | 189° |
| 2026-05-04 19:58 | 37.92906 | -7.64989 | 20150 ft | 336 kts | 189° |
| 2026-05-04 19:58 | 37.90581 | -7.65054 | 19782 ft | 334 kts | 188° |
| 2026-05-04 19:59 | 37.88263 | -7.65114 | 19388 ft | 332 kts | 188° |
| 2026-05-04 19:59 | 37.86701 | -7.65152 | 19122 ft | 332 kts | 188° |
| 2026-05-04 19:59 | 37.83643 | -7.65233 | 18599 ft | 331 kts | 188° |
| 2026-05-04 19:59 | 37.81272 | -7.65308 | 18170 ft | 353 kts | 188° |
| 2026-05-04 20:00 | 37.79622 | -7.65365 | 17859 ft | 360 kts | 187° |
| 2026-05-04 20:00 | 37.77102 | -7.65442 | 17427 ft | 363 kts | 187° |
| 2026-05-04 20:00 | 37.73727 | -7.65526 | 16847 ft | 362 kts | 187° |
| 2026-05-04 20:00 | 37.72061 | -7.65563 | 16559 ft | 361 kts | 187° |
| 2026-05-04 20:01 | 37.69558 | -7.65619 | 16114 ft | 359 kts | 186° |
| 2026-05-04 20:01 | 37.67071 | -7.65678 | 15691 ft | 357 kts | 186° |
| 2026-05-04 20:01 | 37.64603 | -7.65738 | 15299 ft | 351 kts | 186° |
| 2026-05-04 20:01 | 37.62194 | -7.65798 | 14849 ft | 341 kts | 186° |
| 2026-05-04 20:02 | 37.59860 | -7.65856 | 14453 ft | 330 kts | 186° |
| 2026-05-04 20:02 | 37.57579 | -7.65918 | 14058 ft | 327 kts | 186° |
| 2026-05-04 20:02 | 37.55305 | -7.65987 | 13640 ft | 325 kts | 186° |
| 2026-05-04 20:02 | 37.53051 | -7.66054 | 13244 ft | 323 kts | 186° |
| 2026-05-04 20:03 | 37.50815 | -7.66119 | 12855 ft | 320 kts | 186° |
| 2026-05-04 20:03 | 37.48591 | -7.66177 | 12462 ft | 318 kts | 186° |
| 2026-05-04 20:03 | 37.46389 | -7.66235 | 12076 ft | 316 kts | 185° |
| 2026-05-04 20:03 | 37.44202 | -7.66294 | 11711 ft | 313 kts | 185° |
| 2026-05-04 20:04 | 37.42029 | -7.66354 | 11355 ft | 311 kts | 185° |
| 2026-05-04 20:04 | 37.39897 | -7.66409 | 11157 ft | 303 kts | 185° |
| 2026-05-04 20:04 | 37.37807 | -7.66464 | 10705 ft | 300 kts | 185° |
| 2026-05-04 20:04 | 37.35732 | -7.66518 | 10256 ft | 295 kts | 185° |
| 2026-05-04 20:05 | 37.33702 | -7.66571 | 9876 ft | 288 kts | 185° |
| 2026-05-04 20:05 | 37.31704 | -7.66622 | 9505 ft | 286 kts | 185° |
| 2026-05-04 20:05 | 37.29720 | -7.66672 | 9154 ft | 284 kts | 184° |
| 2026-05-04 20:05 | 37.27755 | -7.66724 | 8805 ft | 282 kts | 185° |
| 2026-05-04 20:06 | 37.25800 | -7.66777 | 8464 ft | 280 kts | 185° |
| 2026-05-04 20:06 | 37.23858 | -7.66829 | 8125 ft | 278 kts | 185° |
| 2026-05-04 20:06 | 37.21923 | -7.66880 | 7776 ft | 277 kts | 184° |
| 2026-05-04 20:06 | 37.19999 | -7.66933 | 7441 ft | 276 kts | 184° |
| 2026-05-04 20:07 | 37.18083 | -7.66985 | 7101 ft | 275 kts | 183° |
| 2026-05-04 20:07 | 37.16193 | -7.67035 | 6768 ft | 274 kts | 182° |
| 2026-05-04 20:07 | 37.14288 | -7.67085 | 6423 ft | 273 kts | 182° |
| 2026-05-04 20:07 | 37.12391 | -7.67136 | 6071 ft | 272 kts | 182° |
| 2026-05-04 20:08 | 37.10503 | -7.67187 | 5728 ft | 271 kts | 183° |
| 2026-05-04 20:08 | 37.08622 | -7.67237 | 5397 ft | 269 kts | 182° |
| 2026-05-04 20:08 | 37.06751 | -7.67286 | 5064 ft | 268 kts | 183° |
| 2026-05-04 20:08 | 37.04849 | -7.67335 | 4937 ft | 257 kts | 183° |
| 2026-05-04 20:09 | 37.03174 | -7.67378 | 4849 ft | 246 kts | 183° |
| 2026-05-04 20:09 | 37.01512 | -7.67421 | 4754 ft | 232 kts | 183° |
| 2026-05-04 20:09 | 36.99937 | -7.67596 | 4636 ft | 225 kts | 199° |
| 2026-05-04 20:09 | 36.98635 | -7.68579 | 4546 ft | 219 kts | 230° |
| 2026-05-04 20:10 | 36.97896 | -7.70207 | 4231 ft | 215 kts | 259° |
| 2026-05-04 20:10 | 36.97909 | -7.72005 | 3874 ft | 204 kts | 283° |
| 2026-05-04 20:10 | 36.98161 | -7.73724 | 3573 ft | 194 kts | 284° |
| 2026-05-04 20:10 | 36.98392 | -7.75312 | 3302 ft | 177 kts | 284° |
| 2026-05-04 20:11 | 36.98602 | -7.76770 | 3065 ft | 164 kts | 285° |
| 2026-05-04 20:11 | 36.98799 | -7.78134 | 2863 ft | 154 kts | 286° |
| 2026-05-04 20:11 | 36.98981 | -7.79399 | 2668 ft | 144 kts | 286° |
| 2026-05-04 20:11 | 36.99154 | -7.80598 | 2473 ft | 140 kts | 286° |
| 2026-05-04 20:12 | 36.99326 | -7.81789 | 2275 ft | 138 kts | 285° |
| 2026-05-04 20:12 | 36.99496 | -7.82969 | 2090 ft | 137 kts | 286° |
| 2026-05-04 20:12 | 36.99664 | -7.84140 | 1908 ft | 136 kts | 286° |
| 2026-05-04 20:12 | 36.99830 | -7.85301 | 1722 ft | 135 kts | 285° |
| 2026-05-04 20:13 | 36.99997 | -7.86459 | 1530 ft | 135 kts | 285° |
| 2026-05-04 20:13 | 37.00163 | -7.87618 | 1349 ft | 135 kts | 285° |
| 2026-05-04 20:13 | 37.00328 | -7.88771 | 1167 ft | 135 kts | 285° |
| 2026-05-04 20:13 | 37.00495 | -7.89939 | 984 ft | 137 kts | 283° |
| 2026-05-04 20:14 | 37.00663 | -7.91111 | 807 ft | 135 kts | 282° |
| 2026-05-04 20:14 | 37.00826 | -7.92265 | 645 ft | 135 kts | 281° |
| 2026-05-04 20:14 | 37.00991 | -7.93420 | 465 ft | 134 kts | 283° |
| 2026-05-04 20:14 | 37.01154 | -7.94563 | 294 ft | 133 kts | 283° |
| 2026-05-04 20:15 | 37.01317 | -7.95705 | 114 ft | 133 kts | 283° |
| 2026-05-04 20:15 | 37.01479 | -7.96816 | 26 ft | 118 kts | 281° |
| 2026-05-04 20:15 | 37.01575 | -7.97495 | 20 ft | 36 kts | 280° |
| 2026-05-04 20:15 | 37.01611 | -7.97746 | 18 ft | 24 kts | 280° |
| 2026-05-04 20:16 | 37.01656 | -7.97847 | 19 ft | 10 kts | 353° |
| 2026-05-04 20:16 | 37.01717 | -7.97816 | 20 ft | 10 kts | 47° |
| 2026-05-04 20:16 | 37.01749 | -7.97734 | 21 ft | 11 kts | 64° |
| 2026-05-04 20:16 | 37.01767 | -7.97637 | 20 ft | 12 kts | 86° |
| 2026-05-04 20:17 | 37.01761 | -7.97527 | 20 ft | 13 kts | 98° |
| 2026-05-04 20:17 | 37.01779 | -7.97431 | 21 ft | 12 kts | 47° |
| 2026-05-04 20:17 | 37.01841 | -7.97360 | 20 ft | 12 kts | 54° |
| 2026-05-04 20:17 | 37.01840 | -7.97255 | 20 ft | 13 kts | 100° |
| 2026-05-04 20:18 | 37.01823 | -7.97140 | 20 ft | 14 kts | 100° |
| 2026-05-04 20:18 | 37.01806 | -7.97016 | 20 ft | 15 kts | 100° |
| 2026-05-04 20:18 | 37.01795 | -7.96913 | 20 ft | 10 kts | 82° |
| 2026-05-04 20:18 | 37.01846 | -7.96855 | 20 ft | 10 kts | 19° |
| 2026-05-04 20:19 | 37.01903 | -7.96840 | 20 ft | 5 kts | 9° |
| 2026-05-04 20:19 | 37.01915 | -7.96837 | 20 ft | 0 kts | 9° |